Time;durP1;ratioP1;P1;durP2;ratioP2;P2;SDS_P1;SDS_P2;PMS_P1;PMS_P2;Temp;Humidity;BMP_temperature;BMP_pressure;BME280_temperature;BME280_humidity;BME280_pressure;Samples;Min_cycle;Max_cycle;Signal;HPM_P1;HPM_P2
2021/07/21 00:02:26;;;;;;;10.38;6.62;;;;;;;13.42;67.79;100549.28;2119126;81;21552;-78
2021/07/21 00:05:28;;;;;;;10.80;6.17;;;;;;;13.40;67.91;100544.14;2111792;81;20959;-74
2021/07/21 00:08:29;;;;;;;8.13;6.60;;;;;;;13.38;68.08;100542.66;2099719;81;21146;-75
2021/07/21 00:14:51;;;;;;;11.80;6.63;;;;;;;13.36;68.37;100541.99;2109948;82;22227;-79
2021/07/21 00:18:01;;;;;;;11.63;6.67;;;;;;;13.32;68.58;100544.18;2100718;82;21140;-74
2021/07/21 00:21:03;;;;;;;8.65;6.35;;;;;;;13.33;68.61;100545.83;2117746;81;21129;-74
2021/07/21 00:24:05;;;;;;;9.45;6.42;;;;;;;13.31;68.74;100541.17;2103526;81;21665;-74
2021/07/21 00:27:06;;;;;;;8.45;6.17;;;;;;;13.30;68.80;100554.69;2095534;82;21133;-73
2021/07/21 00:30:12;;;;;;;13.60;6.25;;;;;;;13.26;68.81;100556.84;2124991;81;21008;-76
2021/07/21 00:33:14;;;;;;;9.23;7.17;;;;;;;13.26;69.02;100558.69;2108315;82;21104;-74
2021/07/21 00:36:16;;;;;;;8.93;6.17;;;;;;;13.27;69.07;100555.86;2118759;81;21140;-75
2021/07/21 00:39:18;;;;;;;11.60;6.58;;;;;;;13.22;69.16;100550.19;2107356;81;21665;-78
2021/07/21 00:42:20;;;;;;;10.82;6.42;;;;;;;13.18;69.12;100543.55;2102437;81;21421;-74
2021/07/21 00:45:23;;;;;;;9.30;6.42;;;;;;;13.15;69.27;100547.87;2114755;81;21108;-74
2021/07/21 00:48:25;;;;;;;8.68;6.40;;;;;;;13.13;69.32;100548.56;2116609;82;22249;-74
2021/07/21 00:51:27;;;;;;;9.90;6.87;;;;;;;13.09;69.38;100546.76;2092749;81;21067;-74
2021/07/21 00:54:29;;;;;;;8.95;5.92;;;;;;;13.06;69.45;100544.41;2121306;82;21126;-73
2021/07/21 00:57:30;;;;;;;7.55;6.37;;;;;;;13.03;69.51;100545.27;2111449;81;21073;-75
2021/07/21 01:00:32;;;;;;;12.13;6.72;;;;;;;12.98;69.48;100541.80;2120728;81;21104;-76
2021/07/21 01:03:34;;;;;;;7.60;6.05;;;;;;;12.91;69.47;100532.83;2110133;81;21085;-73
2021/07/21 01:06:38;;;;;;;7.35;5.95;;;;;;;12.86;69.59;100535.17;2106072;82;21019;-74
2021/07/21 01:09:44;;;;;;;7.55;5.85;;;;;;;12.83;69.55;100539.00;2116235;81;22915;-74
2021/07/21 01:13:00;;;;;;;8.68;5.85;;;;;;;12.78;69.56;100537.34;2092244;81;21077;-74
2021/07/21 01:16:12;;;;;;;9.53;6.42;;;;;;;12.71;69.58;100540.38;2123255;81;21707;-75
2021/07/21 01:19:19;;;;;;;6.95;6.17;;;;;;;12.67;69.76;100539.03;2084818;82;21077;-75
2021/07/21 01:22:31;;;;;;;10.43;6.20;;;;;;;12.64;69.81;100542.90;2111950;82;21088;-75
2021/07/21 01:25:42;;;;;;;12.23;6.42;;;;;;;12.62;69.90;100547.55;2119158;81;21671;-74
2021/07/21 01:28:50;;;;;;;11.08;6.78;;;;;;;12.60;69.97;100549.55;2114158;81;21168;-73
2021/07/21 01:31:56;;;;;;;10.18;6.50;;;;;;;12.58;70.15;100549.37;2125935;81;21105;-75
2021/07/21 01:35:06;;;;;;;9.30;5.87;;;;;;;12.57;70.30;100548.55;2102095;81;21113;-74
2021/07/21 01:38:19;;;;;;;12.18;7.50;;;;;;;12.57;70.30;100544.56;2097583;82;21506;-78
2021/07/21 01:41:28;;;;;;;9.90;6.80;;;;;;;12.56;70.40;100548.23;2113189;82;21077;-74
2021/07/21 01:44:35;;;;;;;10.40;5.92;;;;;;;12.55;70.49;100551.88;2107985;82;21073;-74
2021/07/21 01:47:39;;;;;;;7.78;6.30;;;;;;;12.50;70.32;100549.74;2104237;82;21070;-74
2021/07/21 01:50:43;;;;;;;7.97;6.35;;;;;;;12.45;70.35;100545.42;2109908;81;21591;-76
2021/07/21 01:53:46;;;;;;;13.00;7.03;;;;;;;12.41;70.46;100539.26;2086073;81;21156;-74
2021/07/21 01:56:51;;;;;;;7.30;6.12;;;;;;;12.39;70.42;100544.77;2121896;81;21700;-74
2021/07/21 01:59:53;;;;;;;8.80;5.50;;;;;;;12.33;70.38;100544.94;2113299;82;21112;-75
2021/07/21 02:02:59;;;;;;;9.55;6.37;;;;;;;12.27;70.36;100538.93;2118855;81;21716;-74
2021/07/21 02:06:08;;;;;;;9.78;6.97;;;;;;;12.24;70.44;100544.59;2114899;81;21109;-79
2021/07/21 02:09:11;;;;;;;9.33;5.75;;;;;;;12.19;70.46;100548.27;2106170;81;21108;-76
2021/07/21 02:12:14;;;;;;;8.78;6.03;;;;;;;12.17;70.50;100550.27;2118124;81;21184;-74
2021/07/21 02:15:18;;;;;;;9.70;6.28;;;;;;;12.13;70.48;100546.76;2126313;81;21620;-75
2021/07/21 02:18:23;;;;;;;12.10;6.55;;;;;;;12.09;70.58;100551.59;2106315;82;21088;-78
2021/07/21 02:21:26;;;;;;;9.38;6.62;;;;;;;12.07;70.65;100549.08;2115216;81;20981;-74
2021/07/21 02:24:30;;;;;;;11.40;6.75;;;;;;;12.05;71.02;100551.57;2104965;81;21126;-73
2021/07/21 02:27:50;;;;;;;10.25;6.67;;;;;;;12.05;71.16;100548.44;2117802;81;21138;-74
2021/07/21 02:30:54;;;;;;;11.60;6.60;;;;;;;12.05;71.31;100552.42;2110267;81;21073;-74
2021/07/21 02:34:03;;;;;;;10.35;6.28;;;;;;;12.03;71.27;100550.42;2095125;82;21038;-73
2021/07/21 02:37:05;;;;;;;10.05;6.08;;;;;;;12.01;71.30;100554.23;2102209;81;21093;-74
2021/07/21 02:40:10;;;;;;;11.10;6.35;;;;;;;11.98;71.26;100558.06;2110567;82;21085;-74
2021/07/21 02:43:12;;;;;;;9.78;6.70;;;;;;;11.94;71.33;100562.06;2115391;82;21090;-74
2021/07/21 02:46:13;;;;;;;12.43;7.62;;;;;;;11.91;71.33;100566.85;2103947;81;20996;-73
2021/07/21 02:49:20;;;;;;;9.25;7.25;;;;;;;11.86;71.37;100564.20;2100145;82;21070;-75
2021/07/21 02:52:33;;;;;;;11.03;6.75;;;;;;;11.83;71.51;100564.50;2117172;81;21060;-74
2021/07/21 02:55:44;;;;;;;9.03;7.08;;;;;;;11.86;71.65;100562.05;2107919;81;21093;-75
2021/07/21 02:59:01;;;;;;;12.82;7.75;;;;;;;11.83;71.61;100570.32;2099953;82;21648;-78
2021/07/21 03:02:05;;;;;;;10.68;7.67;;;;;;;11.81;71.43;100578.95;2118475;81;21064;-73
2021/07/21 03:05:14;;;;;;;9.43;7.10;;;;;;;11.78;71.72;100578.78;2118779;82;21112;-75
2021/07/21 03:08:21;;;;;;;9.35;7.58;;;;;;;11.78;71.77;100579.28;2094007;82;21145;-74
2021/07/21 03:11:26;;;;;;;12.00;7.20;;;;;;;11.76;71.82;100578.09;2108062;81;21152;-74
2021/07/21 03:14:28;;;;;;;15.68;8.48;;;;;;;11.72;71.90;100579.94;2124266;82;21603;-75
2021/07/21 03:17:37;;;;;;;11.57;7.85;;;;;;;11.75;72.05;100579.61;2089708;81;21116;-74
2021/07/21 03:20:42;;;;;;;10.50;7.80;;;;;;;11.77;72.31;100585.10;2114597;81;21679;-75
2021/07/21 03:23:47;;;;;;;12.73;8.65;;;;;;;11.77;72.29;100587.76;2102852;82;21037;-74
2021/07/21 03:26:52;;;;;;;13.43;8.43;;;;;;;11.73;72.32;100592.23;2085949;81;21085;-74
2021/07/21 03:29:56;;;;;;;13.85;7.47;;;;;;;11.58;72.46;100571.59;2083665;81;21132;-75
2021/07/21 03:33:01;;;;;;;13.90;7.70;;;;;;;11.58;72.46;100571.59;2117447;82;22788;-74
2021/07/21 03:36:06;;;;;;;8.68;7.30;;;;;;;11.75;72.64;100592.40;2120084;81;22250;-73
2021/07/21 03:39:27;;;;;;;11.12;7.25;;;;;;;11.81;72.75;100594.91;2085128;83;22483;-73
2021/07/21 03:42:31;;;;;;;12.82;8.80;;;;;;;11.98;72.65;100597.13;2096400;82;21080;-74
2021/07/21 03:45:34;;;;;;;13.32;7.47;;;;;;;12.19;72.87;100600.16;2073521;82;21140;-74
2021/07/21 03:48:39;;;;;;;11.43;7.80;;;;;;;12.41;72.77;100599.96;2103626;81;21110;-74
2021/07/21 03:51:46;;;;;;;9.63;7.25;;;;;;;12.66;72.64;100598.62;2110857;82;21077;-74
2021/07/21 03:54:53;;;;;;;9.88;7.20;;;;;;;12.88;72.42;100603.23;2094019;81;21121;-75
2021/07/21 03:57:57;;;;;;;11.45;7.12;;;;;;;13.16;72.29;100604.17;2116170;81;21070;-80
2021/07/21 04:01:01;;;;;;;14.63;7.65;;;;;;;13.43;72.13;100611.77;2123137;81;21081;-76
2021/07/21 04:04:06;;;;;;;14.70;7.90;;;;;;;13.75;71.94;100605.11;2105142;81;21093;-75
2021/07/21 04:07:11;;;;;;;15.60;8.03;;;;;;;14.08;71.55;100611.89;2101752;82;21097;-75
2021/07/21 04:10:22;;;;;;;11.78;7.37;;;;;;;14.44;71.31;100609.10;2115220;82;21096;-75
2021/07/21 04:13:27;;;;;;;13.83;8.33;;;;;;;14.73;70.80;100611.88;2117070;81;21162;-74
2021/07/21 04:16:43;;;;;;;13.88;8.00;;;;;;;15.07;70.49;100609.20;2102176;82;21027;-80
2021/07/21 04:19:48;;;;;;;13.13;7.97;;;;;;;15.38;70.19;100614.86;2117347;81;21934;-75
2021/07/21 04:22:51;;;;;;;11.10;6.92;;;;;;;15.61;69.52;100616.89;2110676;81;21022;-76
2021/07/21 04:25:56;;;;;;;12.47;7.20;;;;;;;15.81;69.07;100617.66;2111127;82;21164;-74
2021/07/21 04:28:57;;;;;;;10.70;8.35;;;;;;;16.05;69.05;100621.33;2109048;81;21124;-75
2021/07/21 04:32:02;;;;;;;11.78;8.60;;;;;;;16.32;68.69;100618.89;2110201;81;21442;-75
2021/07/21 04:35:06;;;;;;;14.28;8.18;;;;;;;16.67;68.21;100626.52;2099656;81;21019;-75
2021/07/21 04:38:09;;;;;;;13.48;8.58;;;;;;;16.90;67.71;100619.60;2108610;81;21029;-79
2021/07/21 04:41:32;;;;;;;11.50;7.47;;;;;;;16.98;67.14;100631.52;2035145;83;21088;-74
2021/07/21 04:44:50;;;;;;;14.05;7.35;;;;;;;17.20;67.18;100634.95;2059805;83;21124;-76
2021/07/21 04:47:53;;;;;;;15.93;8.45;;;;;;;17.55;66.54;100632.75;2118991;81;21100;-76
2021/07/21 04:50:56;;;;;;;13.60;7.70;;;;;;;17.79;66.27;100630.89;2104279;81;21022;-75
2021/07/21 04:54:03;;;;;;;11.05;7.00;;;;;;;18.15;65.85;100633.78;2111647;81;21101;-78
2021/07/21 04:57:11;;;;;;;8.20;6.35;;;;;;;18.45;65.24;100640.95;2097512;81;21204;-75
2021/07/21 05:00:14;;;;;;;13.28;7.70;;;;;;;18.69;64.87;100639.49;2104919;82;21088;-75
2021/07/21 05:03:23;;;;;;;10.93;7.12;;;;;;;18.79;64.28;100646.66;2103077;81;21089;-75
2021/07/21 05:06:26;;;;;;;12.10;7.70;;;;;;;19.05;64.00;100646.32;2116448;82;21137;-75
2021/07/21 05:09:28;;;;;;;9.28;6.67;;;;;;;19.40;63.81;100643.33;2102766;81;21084;-79
2021/07/21 05:12:35;;;;;;;8.75;6.33;;;;;;;19.77;63.15;100651.21;2111338;81;21136;-74
2021/07/21 05:15:44;;;;;;;9.33;7.33;;;;;;;20.12;62.80;100649.45;2097592;81;21568;-75
2021/07/21 05:18:46;;;;;;;10.20;6.65;;;;;;;20.27;61.89;100657.23;2117768;82;21042;-75
2021/07/21 05:21:48;;;;;;;10.25;6.97;;;;;;;20.37;61.49;100657.06;2115295;81;21199;-73
2021/07/21 05:24:50;;;;;;;9.30;6.70;;;;;;;20.65;61.28;100655.03;2115640;81;21152;-73
2021/07/21 05:27:55;;;;;;;11.08;6.58;;;;;;;21.03;60.23;100654.88;2097734;82;21137;-73
2021/07/21 05:30:57;;;;;;;9.30;6.05;;;;;;;21.14;60.17;100660.89;2114997;81;21108;-73
2021/07/21 05:33:59;;;;;;;8.98;6.80;;;;;;;21.42;59.32;100663.11;2109359;82;21077;-76
2021/07/21 05:37:04;;;;;;;11.73;7.28;;;;;;;21.62;59.35;100659.36;2113362;81;21112;-75
2021/07/21 05:40:11;;;;;;;11.22;6.85;;;;;;;21.82;58.51;100656.40;2115827;81;21070;-73
2021/07/21 05:43:22;;;;;;;11.55;6.40;;;;;;;22.03;58.33;100655.09;2078224;82;21656;-73
2021/07/21 05:46:28;;;;;;;10.55;6.62;;;;;;;22.18;57.51;100661.45;2112726;81;21058;-76
2021/07/21 05:49:31;;;;;;;8.58;6.40;;;;;;;22.19;57.20;100655.84;2087189;82;22251;-72
2021/07/21 05:52:40;;;;;;;11.60;6.40;;;;;;;22.28;57.12;100656.33;2098243;81;21161;-76
2021/07/21 05:55:42;;;;;;;9.65;6.15;;;;;;;22.61;56.54;100650.41;2107685;81;21097;-75
2021/07/21 05:58:45;;;;;;;8.33;5.62;;;;;;;22.87;56.25;100655.06;2128774;81;21088;-73
2021/07/21 06:01:47;;;;;;;8.28;5.92;;;;;;;23.20;55.89;100653.97;2120224;81;21505;-72
2021/07/21 06:04:51;;;;;;;8.93;5.83;;;;;;;23.31;55.25;100663.64;2116752;81;21199;-73
2021/07/21 06:08:12;;;;;;;11.12;5.80;;;;;;;23.25;54.68;100667.59;2106276;81;22335;-80
2021/07/21 06:11:31;;;;;;;12.75;6.30;;;;;;;23.43;54.80;100663.11;2112077;82;21216;-72
2021/07/21 06:14:33;;;;;;;8.90;6.25;;;;;;;23.62;54.30;100663.75;2111862;81;21166;-72
2021/07/21 06:17:36;;;;;;;9.35;5.65;;;;;;;23.88;53.93;100670.55;2110997;81;21104;-75
2021/07/21 06:20:40;;;;;;;8.13;5.83;;;;;;;24.04;53.24;100667.05;2120001;82;21071;-73
2021/07/21 06:23:43;;;;;;;8.43;5.87;;;;;;;24.08;52.92;100671.47;2113720;82;21105;-77
2021/07/21 06:26:45;;;;;;;11.55;5.67;;;;;;;24.16;52.92;100674.61;2111785;82;21144;-71
2021/07/21 06:29:51;;;;;;;9.40;5.35;;;;;;;24.21;52.20;100668.98;2098748;81;21150;-73
2021/07/21 06:32:53;;;;;;;8.70;5.05;;;;;;;24.27;52.42;100674.27;2098554;82;21096;-76
2021/07/21 06:35:56;;;;;;;9.63;5.67;;;;;;;24.53;51.92;100676.91;2108506;81;21140;-73
2021/07/21 06:38:59;;;;;;;9.93;5.75;;;;;;;24.68;51.78;100676.88;2122546;81;21142;-75
2021/07/21 06:42:05;;;;;;;11.22;5.70;;;;;;;24.93;51.32;100678.63;2113682;82;21093;-71
2021/07/21 06:45:10;;;;;;;10.90;5.42;;;;;;;25.36;51.15;100679.80;2119930;81;21557;-70
2021/07/21 06:48:16;;;;;;;9.25;5.60;;;;;;;25.72;50.60;100682.98;2117919;81;21055;-74
2021/07/21 06:51:18;;;;;;;8.25;5.22;;;;;;;26.00;50.04;100684.69;2098184;81;21133;-72
2021/07/21 06:54:20;;;;;;;10.98;6.08;;;;;;;26.10;49.79;100681.24;2109196;81;21199;-70
2021/07/21 06:57:40;;;;;;;10.35;5.25;;;;;;;26.32;49.54;100682.55;2116827;81;21128;-72
2021/07/21 07:01:00;;;;;;;9.08;5.17;;;;;;;26.58;49.06;100691.79;2113457;81;21069;-72
2021/07/21 07:04:16;;;;;;;7.25;4.53;;;;;;;26.69;48.54;100694.06;2119116;81;21002;-72
2021/07/21 07:07:35;;;;;;;;;;;;;;;26.85;48.35;100693.65;2108289;81;21129;-73
2021/07/21 07:10:48;;;;;;;11.33;4.62;;;;;;;26.92;46.94;100692.87;2039440;83;20872;-78
2021/07/21 07:13:50;;;;;;;7.08;4.83;;;;;;;26.87;47.49;100699.11;2108923;82;21581;-73
2021/07/21 07:16:52;;;;;;;6.40;4.87;;;;;;;26.78;47.21;100701.50;2119721;81;21056;-73
2021/07/21 07:19:54;;;;;;;8.85;4.60;;;;;;;26.76;46.90;100698.21;2119847;82;21415;-73
2021/07/21 07:22:55;;;;;;;9.80;5.12;;;;;;;26.85;47.08;100695.01;2106885;81;21125;-75
2021/07/21 07:25:57;;;;;;;6.70;4.45;;;;;;;26.87;46.44;100690.13;2105859;81;21039;-75
2021/07/21 07:28:58;;;;;;;6.72;4.47;;;;;;;26.96;46.63;100702.98;2074294;83;21045;-73
2021/07/21 07:32:00;;;;;;;6.53;4.65;;;;;;;27.08;46.28;100694.62;2064660;83;21100;-72
2021/07/21 07:35:02;;;;;;;7.40;4.92;;;;;;;27.02;46.07;100697.03;2111785;81;21437;-74
2021/07/21 07:38:04;;;;;;;10.50;5.15;;;;;;;27.08;45.62;100702.78;2107614;82;21028;-72
2021/07/21 07:41:06;;;;;;;7.28;4.50;;;;;;;27.22;45.66;100705.36;2105582;81;21623;-71
2021/07/21 07:44:09;;;;;;;8.40;4.47;;;;;;;27.34;45.89;100698.88;2110611;81;21069;-72
2021/07/21 07:47:11;;;;;;;10.25;4.10;;;;;;;27.09;45.48;100696.27;2108824;81;21113;-72
2021/07/21 07:50:13;;;;;;;6.78;4.47;;;;;;;27.08;45.28;100694.62;2117317;81;21157;-72
2021/07/21 07:53:15;;;;;;;8.80;4.17;;;;;;;27.29;45.80;100690.70;2108901;82;21104;-72
2021/07/21 07:56:19;;;;;;;10.10;5.37;;;;;;;27.74;45.00;100687.91;2124246;81;21150;-75
2021/07/21 07:59:21;;;;;;;9.90;4.35;;;;;;;27.90;45.05;100689.61;2121834;81;21069;-72
2021/07/21 08:02:23;;;;;;;9.13;4.60;;;;;;;28.13;44.53;100680.14;2119403;81;21057;-73
2021/07/21 08:05:25;;;;;;;6.45;4.30;;;;;;;28.37;44.09;100683.16;2104477;81;21634;-74
2021/07/21 08:08:27;;;;;;;8.93;4.12;;;;;;;28.45;43.98;100682.66;2115407;81;21094;-71
2021/07/21 08:11:28;;;;;;;10.25;3.80;;;;;;;28.60;43.45;100683.19;2121338;81;21081;-72
2021/07/21 08:14:32;;;;;;;7.83;3.98;;;;;;;28.51;42.95;100687.02;2109171;82;21085;-71
2021/07/21 08:17:34;;;;;;;6.50;3.65;;;;;;;28.01;42.87;100687.19;2101696;82;21160;-71
2021/07/21 08:20:35;;;;;;;7.65;3.70;;;;;;;27.90;42.66;100690.97;2108209;82;21090;-71
2021/07/21 08:23:39;;;;;;;5.90;4.03;;;;;;;27.26;42.65;100689.33;2106069;81;21060;-71
2021/07/21 08:26:41;;;;;;;7.05;3.87;;;;;;;26.81;43.46;100694.72;2119484;81;21117;-70
2021/07/21 08:29:42;;;;;;;7.25;4.55;;;;;;;26.43;43.83;100694.36;2099699;81;21339;-71
2021/07/21 08:32:49;;;;;;;7.35;4.10;;;;;;;26.37;43.85;100694.30;2109372;82;21040;-74
2021/07/21 08:35:51;;;;;;;7.15;3.90;;;;;;;25.80;44.42;100697.48;2103078;81;21599;-73
2021/07/21 08:38:53;;;;;;;9.03;4.40;;;;;;;25.22;44.84;100705.67;2077175;83;21037;-70
2021/07/21 08:41:54;;;;;;;10.15;4.10;;;;;;;24.71;45.52;100709.75;2085865;83;21086;-81
2021/07/21 08:44:58;;;;;;;7.28;4.10;;;;;;;24.26;46.12;100711.92;2067241;83;21072;-78
2021/07/21 08:47:59;;;;;;;5.97;3.83;;;;;;;23.90;46.65;100712.58;2084487;83;21053;-75
2021/07/21 08:51:01;;;;;;;12.73;5.05;;;;;;;23.56;47.08;100714.28;2082994;83;21147;-77
2021/07/21 08:54:03;;;;;;;6.75;4.53;;;;;;;23.12;47.46;100717.93;2071948;83;21110;-74
2021/07/21 08:57:06;;;;;;;8.13;4.80;;;;;;;22.77;48.22;100711.09;2094784;83;21093;-77
2021/07/21 09:00:13;;;;;;;7.85;4.00;;;;;;;22.45;48.76;100713.27;2060561;83;21638;-74
2021/07/21 09:03:16;;;;;;;10.85;5.15;;;;;;;22.29;49.22;100718.78;2061425;84;21110;-74
2021/07/21 09:06:17;;;;;;;6.40;3.83;;;;;;;22.13;49.69;100718.85;2079174;83;21667;-77
2021/07/21 09:09:19;;;;;;;5.90;4.22;;;;;;;22.04;49.83;100724.28;2089144;83;21038;-75
2021/07/21 09:12:21;;;;;;;7.85;4.65;;;;;;;22.08;50.30;100725.49;2071989;83;21034;-74
2021/07/21 09:15:24;;;;;;;8.40;4.47;;;;;;;22.14;50.78;100725.92;2049841;84;21636;-74
2021/07/21 09:18:29;;;;;;;7.10;4.37;;;;;;;22.12;50.77;100726.67;2069726;83;21094;-74
2021/07/21 09:21:30;;;;;;;9.33;4.60;;;;;;;22.03;50.69;100726.70;2056146;84;21078;-73
2021/07/21 09:24:31;;;;;;;12.28;4.53;;;;;;;21.85;51.01;100733.77;2074253;83;21176;-73
2021/07/21 09:27:33;;;;;;;11.05;4.70;;;;;;;21.80;51.58;100736.85;2071179;83;21073;-74
2021/07/21 09:30:43;;;;;;;6.87;4.53;;;;;;;21.67;51.78;100731.06;2052087;83;21122;-75
2021/07/21 09:33:46;;;;;;;8.68;5.08;;;;;;;21.63;51.77;100731.23;2070739;83;21106;-75
2021/07/21 09:36:48;;;;;;;6.35;4.75;;;;;;;21.59;51.78;100740.81;2071192;83;21105;-75
2021/07/21 09:39:52;;;;;;;6.90;4.58;;;;;;;21.58;51.50;100737.82;2095452;83;21052;-76
2021/07/21 09:42:55;;;;;;;8.20;4.40;;;;;;;21.59;50.94;100739.46;2076911;82;21078;-76
2021/07/21 09:46:07;;;;;;;6.30;4.70;;;;;;;21.65;51.02;100738.06;2113111;81;21119;-75
2021/07/21 09:49:20;;;;;;;5.55;4.22;;;;;;;21.76;50.89;100736.98;2106286;82;21626;-76
2021/07/21 09:52:25;;;;;;;6.42;4.92;;;;;;;21.80;50.44;100740.38;2087012;82;21026;-76
2021/07/21 09:55:27;;;;;;;5.95;4.40;;;;;;;21.83;50.03;100729.65;2112257;81;21207;-76
2021/07/21 09:58:34;;;;;;;7.08;4.60;;;;;;;21.91;49.92;100734.22;2108900;81;21149;-76
2021/07/21 10:01:36;;;;;;;8.35;5.22;;;;;;;22.14;49.71;100728.63;2116786;81;21766;-76
2021/07/21 10:04:40;;;;;;;6.92;5.42;;;;;;;22.28;49.54;100728.77;2116133;82;21062;-77
2021/07/21 10:07:51;;;;;;;6.55;4.85;;;;;;;22.41;48.55;100728.28;2110422;82;21063;-76
2021/07/21 10:10:53;;;;;;;7.72;5.10;;;;;;;22.48;48.46;100733.08;2113661;82;21039;-75
2021/07/21 10:14:11;;;;;;;6.15;4.70;;;;;;;22.58;48.36;100726.56;2101583;82;21087;-75
2021/07/21 10:17:17;;;;;;;7.17;4.80;;;;;;;22.71;48.04;100725.02;2110902;81;21724;-76
2021/07/21 10:20:19;;;;;;;5.08;4.30;;;;;;;22.91;47.65;100726.58;2116014;81;21080;-75
2021/07/21 10:23:23;;;;;;;5.12;4.40;;;;;;;23.07;47.16;100715.09;2103807;82;21695;-75
2021/07/21 10:26:27;;;;;;;4.05;3.65;;;;;;;23.25;46.38;100716.31;2115227;82;21139;-77
2021/07/21 10:29:30;;;;;;;11.18;4.22;;;;;;;23.74;45.44;100717.42;2093962;82;21093;-74
2021/07/21 10:32:33;;;;;;;4.97;3.72;;;;;;;24.28;44.92;100706.27;2110161;82;21082;-75
2021/07/21 10:35:34;;;;;;;3.65;3.35;;;;;;;24.58;44.89;100710.06;2111717;82;21108;-75
2021/07/21 10:38:37;;;;;;;4.35;3.80;;;;;;;25.04;43.30;100707.56;2112111;81;21077;-76
2021/07/21 10:41:39;;;;;;;9.83;4.08;;;;;;;25.41;43.03;100704.86;2109174;82;21092;-75
2021/07/21 10:44:41;;;;;;;4.47;4.08;;;;;;;25.76;42.68;100699.05;2104877;81;20991;-75
2021/07/21 10:47:57;;;;;;;5.75;3.85;;;;;;;26.04;42.70;100698.59;2114779;82;21094;-74
2021/07/21 10:51:07;;;;;;;4.95;4.00;;;;;;;26.36;41.80;100694.58;2108780;82;21664;-75
2021/07/21 10:54:13;;;;;;;4.62;3.80;;;;;;;26.46;41.73;100706.08;2104363;82;21659;-74
2021/07/21 11:00:50;;;;;;;5.57;3.73;;;;;;;26.55;41.26;100699.11;2109953;82;21085;-75
2021/07/21 11:04:03;;;;;;;3.50;3.20;;;;;;;26.62;39.95;100692.92;2106568;82;21086;-75
2021/07/21 11:07:05;;;;;;;7.33;4.45;;;;;;;26.29;39.98;100694.77;2106850;82;21143;-74
2021/07/21 11:10:08;;;;;;;5.50;3.45;;;;;;;26.23;40.14;100690.36;2115926;82;21056;-74
2021/07/21 11:13:29;;;;;;;5.53;3.40;;;;;;;26.35;40.40;100688.29;2121573;81;21065;-77
2021/07/21 11:16:41;;;;;;;5.47;3.60;;;;;;;26.48;39.81;100690.33;2121503;81;21070;-74
2021/07/21 11:19:50;;;;;;;3.47;3.17;;;;;;;26.63;39.40;100680.95;2124647;82;21593;-74
2021/07/21 11:22:52;;;;;;;6.62;4.00;;;;;;;26.73;39.56;100675.59;2104752;81;21037;-74
2021/07/21 11:26:31;;;;;;;7.30;3.92;;;;;;;26.76;38.99;100680.52;2112499;81;21034;-74
2021/07/21 11:29:38;;;;;;;6.85;3.70;;;;;;;26.56;39.10;100679.00;2117459;82;21081;-74
2021/07/21 11:32:40;;;;;;;4.58;3.60;;;;;;;26.13;38.92;100684.30;2116515;81;21070;-73
2021/07/21 11:35:43;;;;;;;5.05;3.60;;;;;;;25.56;39.37;100689.30;2116017;81;21088;-74
2021/07/21 11:38:49;;;;;;;4.47;3.70;;;;;;;25.10;39.33;100688.65;2107267;82;21113;-73
2021/07/21 11:41:51;;;;;;;4.65;3.87;;;;;;;24.60;39.67;100689.77;2117607;81;21064;-74
2021/07/21 11:45:07;;;;;;;4.95;3.77;;;;;;;24.11;39.84;100691.31;2076931;83;21042;-77
2021/07/21 11:48:09;;;;;;;5.70;3.83;;;;;;;23.71;40.96;100697.05;2112599;82;21556;-75
2021/07/21 11:51:11;;;;;;;4.67;3.30;;;;;;;23.50;41.04;100693.58;2122819;81;21112;-75
2021/07/21 11:54:20;;;;;;;4.00;3.58;;;;;;;23.27;41.09;100699.31;2104688;82;21035;-74
2021/07/21 11:57:26;;;;;;;4.47;3.67;;;;;;;23.10;41.42;100705.16;2118545;82;21053;-74
2021/07/21 12:00:28;;;;;;;4.47;3.58;;;;;;;22.97;41.39;100713.48;2101468;81;21076;-73
2021/07/21 12:03:29;;;;;;;8.30;4.03;;;;;;;22.95;41.52;100714.24;2114638;81;21073;-74
2021/07/21 12:06:31;;;;;;;4.95;3.77;;;;;;;22.99;41.72;100706.79;2104329;81;22300;-74
2021/07/21 12:09:41;;;;;;;5.47;3.80;;;;;;;23.17;41.98;100711.28;2094134;82;21097;-74
2021/07/21 12:12:44;;;;;;;;;;;;;;;23.37;42.05;100707.36;2101023;81;21002;-75
2021/07/21 12:15:46;;;;;;;6.35;4.03;;;;;;;23.58;41.83;100703.23;2102788;81;20197;-74
2021/07/21 12:18:54;;;;;;;4.30;3.58;;;;;;;23.71;41.49;100706.53;2109005;81;21567;-75
2021/07/21 12:22:14;;;;;;;4.95;3.95;;;;;;;23.69;41.42;100702.38;2111185;82;21140;-74
2021/07/21 12:25:18;;;;;;;9.05;4.55;;;;;;;23.66;41.07;100692.84;2106829;81;21470;-77
2021/07/21 12:28:20;;;;;;;5.80;4.37;;;;;;;23.66;41.35;100699.61;2102740;82;21053;-75
2021/07/21 12:31:30;;;;;;;5.30;3.77;;;;;;;23.64;40.70;100695.49;2105778;81;21111;-73
2021/07/21 12:34:31;;;;;;;7.08;4.40;;;;;;;23.60;41.58;100697.05;2114148;81;21164;-75
2021/07/21 12:37:37;;;;;;;5.92;4.50;;;;;;;23.69;41.91;100699.13;2085305;82;21624;-77
2021/07/21 12:40:41;;;;;;;7.87;4.35;;;;;;;23.76;41.75;100692.24;2076873;83;21144;-74
2021/07/21 12:43:43;;;;;;;7.08;3.92;;;;;;;23.75;42.13;100693.31;2109498;81;21397;-76
2021/07/21 12:46:46;;;;;;;7.60;4.67;;;;;;;23.78;42.12;100694.73;2108210;81;20983;-74
2021/07/21 12:49:55;;;;;;;7.30;4.75;;;;;;;23.80;42.54;100689.91;2067828;83;21095;-73
2021/07/21 12:53:16;;;;;;;5.23;4.50;;;;;;;23.80;42.32;100691.25;2033989;84;21191;-78
2021/07/21 12:56:16;;;;;;;8.78;4.87;;;;;;;23.87;42.56;100691.38;2028341;85;21174;-73
2021/07/21 12:59:18;;;;;;;15.88;4.83;;;;;;;23.96;42.58;100690.47;2034625;85;21702;-73
2021/07/21 13:02:25;;;;;;;4.97;4.03;;;;;;;24.04;42.66;100691.44;2075858;83;21077;-72
2021/07/21 13:05:34;;;;;;;8.00;4.90;;;;;;;24.26;41.84;100694.83;2040426;84;21089;-73
2021/07/21 13:08:36;;;;;;;7.25;4.70;;;;;;;24.28;41.80;100694.06;2034179;84;21126;-75
2021/07/21 13:11:37;;;;;;;6.17;4.90;;;;;;;24.32;41.34;100699.27;2043236;84;21105;-80
2021/07/21 13:14:40;;;;;;;6.30;4.42;;;;;;;24.31;40.78;100697.10;2049791;83;21121;-73
2021/07/21 13:17:42;;;;;;;5.35;4.80;;;;;;;24.38;41.87;100692.36;2087449;83;21021;-75
2021/07/21 13:20:46;;;;;;;6.40;4.33;;;;;;;24.58;42.19;100691.08;2088760;83;20983;-76
2021/07/21 13:23:49;;;;;;;8.68;4.90;;;;;;;24.59;40.96;100689.48;2056966;84;21108;-74
2021/07/21 13:27:04;;;;;;;6.00;4.45;;;;;;;24.65;40.66;100696.36;2074705;83;21101;-76
2021/07/21 13:30:24;;;;;;;5.60;4.40;;;;;;;24.49;40.39;100696.08;2074932;83;22292;-72
2021/07/21 13:33:33;;;;;;;4.87;4.12;;;;;;;24.46;40.76;100698.47;2080927;83;21109;-73
2021/07/21 13:36:43;;;;;;;5.42;4.03;;;;;;;24.55;40.22;100696.48;2087722;83;21041;-73
2021/07/21 13:39:46;;;;;;;;;;;;;;;24.63;39.81;100697.13;2068095;83;21687;-72
2021/07/21 13:43:05;;;;;;;4.47;3.70;;;;;;;24.50;39.97;100689.61;2086973;83;20187;-74
2021/07/21 13:46:28;;;;;;;5.40;4.08;;;;;;;24.56;39.51;100681.84;2090567;83;21367;-74
2021/07/21 13:49:34;;;;;;;8.50;4.22;;;;;;;24.56;38.55;100680.48;2095545;83;21093;-72
2021/07/21 13:52:36;;;;;;;7.42;4.50;;;;;;;24.55;38.72;100684.28;2096335;83;21055;-78
2021/07/21 13:55:37;;;;;;;10.23;4.65;;;;;;;24.34;38.41;100680.34;2088077;83;21160;-72
2021/07/21 13:58:39;;;;;;;16.52;5.20;;;;;;;24.25;39.05;100683.70;2075559;83;21096;-73
2021/07/21 14:01:41;;;;;;;7.95;4.87;;;;;;;24.40;39.47;100685.32;2121221;82;21104;-75
2021/07/21 14:04:42;;;;;;;7.83;4.50;;;;;;;24.53;39.38;100682.88;2079995;83;21037;-72
2021/07/21 14:07:44;;;;;;;8.83;4.75;;;;;;;24.59;38.61;100684.06;2123311;82;21120;-72
2021/07/21 14:10:45;;;;;;;6.75;4.70;;;;;;;24.64;39.67;100678.41;2119032;81;20968;-74
2021/07/21 14:13:47;;;;;;;4.60;4.20;;;;;;;24.54;39.36;100693.46;2109562;82;21085;-73
2021/07/21 14:16:50;;;;;;;6.20;4.40;;;;;;;24.37;38.87;100685.81;2110305;81;21069;-75
2021/07/21 14:19:52;;;;;;;5.10;4.10;;;;;;;24.21;38.54;100690.12;2112569;81;21069;-73
2021/07/21 14:22:54;;;;;;;4.78;4.28;;;;;;;24.14;38.44;100690.83;2112929;81;21045;-75
2021/07/21 14:25:56;;;;;;;6.53;5.40;;;;;;;24.09;38.74;100691.55;2109192;82;21073;-72
2021/07/21 14:28:59;;;;;;;4.75;3.70;;;;;;;24.09;38.48;100678.53;2116595;81;21406;-73